KANW/ANW METAR and TAF weather

Enter ICAO airport designator
Station Type Date Time Source
KANW METAR 2022/06/30 02:15 UTC NOAA

KANW 300215Z AUTO 19008KT 10SM CLR 26/12 A2984 RMK AO2 T02620123


Station Type Date Time Source
KANW Decoded METAR 2022/06/30 02:15 UTC NOAA

Ainsworth Municipal, NE, United States (KANW) 42-35N 100-00W
Jun 29, 2022 - 10:15 PM EDT / 2022.06.30 0215 UTC
Wind: from the S (190 degrees) at 9 MPH (8 KT):0
Visibility: 10 mile(s):0
Sky conditions: clear
Temperature: 79.2 F (26.2 C)
Dew Point: 54.1 F (12.3 C)
Relative Humidity: 42%
Pressure (altimeter): 29.84 in. Hg (1010 hPa)
ob: KANW 300215Z AUTO 19008KT 10SM CLR 26/12 A2984 RMK AO2 T02620123
cycle: 2

Station Type Date Time Source
KANW TAF UTC NOAA

Error!

Example: see airport list